createdAt,value
2019-03-06T00:00:49.810Z,100.00
2019-03-06T00:01:56.570Z,100.00
2019-03-06T00:02:59.339Z,100.00
2019-03-06T00:04:02.466Z,100.00
2019-03-06T00:05:06.372Z,100.00
2019-03-06T00:06:16.431Z,100.00
2019-03-06T00:07:14.521Z,100.00
2019-03-06T00:08:24.609Z,100.00
2019-03-06T00:09:27.546Z,100.00
2019-03-06T00:10:31.536Z,100.00
2019-03-06T00:11:36.495Z,100.00
2019-03-06T00:12:39.563Z,100.00
2019-03-06T00:13:42.756Z,100.00
2019-03-06T00:14:45.579Z,100.00
2019-03-06T00:15:48.363Z,100.00
2019-03-06T00:16:51.137Z,100.00
2019-03-06T00:17:53.907Z,100.00
2019-03-06T00:18:57.093Z,100.00
2019-03-06T00:20:00.337Z,100.00
2019-03-06T00:21:03.165Z,100.00
2019-03-06T00:22:05.930Z,100.00
2019-03-06T00:23:08.771Z,100.00
2019-03-06T00:24:14.050Z,100.00
2019-03-06T00:25:17.320Z,100.00
2019-03-06T00:27:34.532Z,100.00
2019-03-06T00:28:42.344Z,100.00
2019-03-06T00:29:47.320Z,100.00
2019-03-06T00:30:55.606Z,100.00
2019-03-06T00:32:01.196Z,100.00
2019-03-06T00:33:06.763Z,100.00
2019-03-06T00:34:09.573Z,100.00
2019-03-06T00:35:17.251Z,100.00
2019-03-06T00:36:22.389Z,100.00
2019-03-06T00:37:25.203Z,100.00
2019-03-06T00:38:28.295Z,100.00
2019-03-06T00:39:37.267Z,100.00
2019-03-06T00:40:54.101Z,100.00
2019-03-06T00:41:56.918Z,100.00
2019-03-06T00:43:01.393Z,100.00
2019-03-06T00:44:04.496Z,100.00
2019-03-06T00:45:07.363Z,100.00
2019-03-06T00:46:10.237Z,100.00
2019-03-06T00:47:13.060Z,100.00
2019-03-06T00:48:15.896Z,100.00
2019-03-06T00:49:18.897Z,100.00
2019-03-06T00:50:21.966Z,100.00
2019-03-06T00:51:24.851Z,100.00
2019-03-06T00:52:27.652Z,100.00
2019-03-06T00:53:31.821Z,100.00
2019-03-06T00:54:34.621Z,100.00
2019-03-06T00:55:37.418Z,100.00
2019-03-06T00:56:40.632Z,100.00
2019-03-06T00:57:43.466Z,100.00
2019-03-06T00:58:46.310Z,100.00
2019-03-06T00:59:49.466Z,100.00
2019-03-06T01:00:52.275Z,100.00
2019-03-06T01:01:55.085Z,100.00
2019-03-06T01:02:58.224Z,99.83
2019-03-06T01:04:01.625Z,100.00
2019-03-06T01:05:04.519Z,100.00
2019-03-06T01:06:07.329Z,100.00
2019-03-06T01:07:10.160Z,100.00
2019-03-06T01:08:13.009Z,100.00
2019-03-06T01:09:17.420Z,100.00
2019-03-06T01:10:20.242Z,100.00
2019-03-06T01:11:23.234Z,100.00
2019-03-06T01:12:26.062Z,100.00
2019-03-06T01:13:28.962Z,100.00
2019-03-06T01:14:31.770Z,100.00
2019-03-06T01:15:34.860Z,100.00
2019-03-06T01:16:37.668Z,100.00
2019-03-06T01:17:40.496Z,100.00
2019-03-06T01:18:43.416Z,100.00
2019-03-06T01:19:46.432Z,100.00
2019-03-06T01:20:49.260Z,100.00
2019-03-06T01:21:52.388Z,100.00
2019-03-06T01:22:55.193Z,100.00
2019-03-06T01:23:58.477Z,100.00
2019-03-06T01:25:03.567Z,100.00
2019-03-06T01:26:06.450Z,99.86
2019-03-06T01:27:09.241Z,99.86
2019-03-06T01:28:12.353Z,100.00
2019-03-06T01:29:15.126Z,100.00
2019-03-06T01:30:18.938Z,100.00
2019-03-06T01:31:24.780Z,100.00
2019-03-06T01:32:27.642Z,100.00
2019-03-06T01:33:49.556Z,100.00
2019-03-06T01:35:12.589Z,99.61
2019-03-06T01:36:40.092Z,100.00
2019-03-06T01:37:58.678Z,100.00
2019-03-06T01:39:08.815Z,100.00
2019-03-06T01:40:26.646Z,100.00
2019-03-06T01:41:51.514Z,99.56
2019-03-06T01:43:05.655Z,99.82
2019-03-06T01:44:13.024Z,99.63
2019-03-06T01:45:16.040Z,99.17
2019-03-06T01:46:18.903Z,99.39
2019-03-06T01:47:21.875Z,99.43
2019-03-06T01:48:24.802Z,99.98
2019-03-06T01:49:27.712Z,100.00
2019-03-06T01:50:30.852Z,100.00
2019-03-06T01:51:33.698Z,99.99
2019-03-06T01:52:36.561Z,99.83
2019-03-06T01:53:39.353Z,99.93
2019-03-06T01:54:42.893Z,99.93
2019-03-06T01:55:45.720Z,100.00
2019-03-06T01:56:48.788Z,99.97
2019-03-06T01:57:51.636Z,99.97
2019-03-06T01:58:54.645Z,100.00
2019-03-06T01:59:57.495Z,99.65
2019-03-06T02:01:00.304Z,99.65
2019-03-06T02:02:05.942Z,99.30
2019-03-06T02:03:09.049Z,99.65
2019-03-06T02:04:11.920Z,99.61
2019-03-06T02:05:14.758Z,100.00
2019-03-06T02:06:19.775Z,100.00
2019-03-06T02:07:22.768Z,99.53
2019-03-06T02:08:25.629Z,99.69
2019-03-06T02:09:28.795Z,100.00
2019-03-06T02:10:32.082Z,99.89
2019-03-06T02:11:35.332Z,99.24
2019-03-06T02:12:38.150Z,100.00
2019-03-06T02:13:41.001Z,99.72
2019-03-06T02:14:43.823Z,100.00
2019-03-06T02:15:48.717Z,100.00
2019-03-06T02:16:51.550Z,100.00
2019-03-06T02:17:54.379Z,99.88
2019-03-06T02:18:57.629Z,100.00
2019-03-06T02:20:00.928Z,100.00
2019-03-06T02:21:04.261Z,100.00
2019-03-06T02:22:07.784Z,100.00
2019-03-06T02:23:10.583Z,99.75
2019-03-06T02:24:13.410Z,100.00
2019-03-06T02:25:16.210Z,100.00
2019-03-06T02:26:19.276Z,100.00
2019-03-06T02:27:22.483Z,100.00
2019-03-06T02:28:25.573Z,100.00
2019-03-06T02:29:28.396Z,99.86
2019-03-06T02:30:31.244Z,100.00
2019-03-06T02:31:34.097Z,100.00
2019-03-06T02:32:36.912Z,100.00
2019-03-06T02:33:39.747Z,99.99
2019-03-06T02:34:42.827Z,99.70
2019-03-06T02:35:45.636Z,100.00
2019-03-06T02:36:48.540Z,100.00
2019-03-06T02:37:51.332Z,100.00
2019-03-06T02:38:54.138Z,100.00
2019-03-06T02:39:56.926Z,100.00
2019-03-06T02:41:00.228Z,100.00
2019-03-06T02:42:03.109Z,100.00
2019-03-06T02:43:06.034Z,99.92
2019-03-06T02:44:08.900Z,100.00
2019-03-06T02:45:11.771Z,100.00
2019-03-06T02:46:14.645Z,100.00
2019-03-06T02:47:17.949Z,100.00
2019-03-06T02:48:20.742Z,100.00
2019-03-06T02:49:23.686Z,100.00
2019-03-06T02:50:26.656Z,100.00
2019-03-06T02:51:29.434Z,100.00
2019-03-06T02:52:32.252Z,100.00
2019-03-06T02:53:35.360Z,100.00
2019-03-06T02:54:38.329Z,100.00
2019-03-06T02:55:41.413Z,100.00
2019-03-06T02:56:47.060Z,100.00
2019-03-06T02:57:54.695Z,100.00
2019-03-06T02:59:15.091Z,100.00
2019-03-06T03:00:36.315Z,100.00
2019-03-06T03:01:59.292Z,100.00
2019-03-06T03:03:24.841Z,100.00
2019-03-06T03:04:41.774Z,99.78
2019-03-06T03:05:59.702Z,99.84
2019-03-06T03:07:06.002Z,99.84
2019-03-06T03:08:08.825Z,100.00
2019-03-06T03:09:11.610Z,100.00
2019-03-06T03:10:14.864Z,100.00
2019-03-06T03:11:18.037Z,100.00
2019-03-06T03:12:20.849Z,100.00
2019-03-06T03:13:23.668Z,100.00
2019-03-06T03:14:26.487Z,99.94
2019-03-06T03:15:29.358Z,99.65
2019-03-06T03:16:32.342Z,99.65
2019-03-06T03:17:35.456Z,99.63
2019-03-06T03:18:38.277Z,100.00
2019-03-06T03:19:41.082Z,99.83
2019-03-06T03:20:43.891Z,99.90
2019-03-06T03:21:47.030Z,100.00
2019-03-06T03:22:49.848Z,99.55
2019-03-06T03:23:52.941Z,99.68
2019-03-06T03:24:55.751Z,99.68
2019-03-06T03:25:58.574Z,99.85
2019-03-06T03:27:01.501Z,99.48
2019-03-06T03:28:04.455Z,99.71
2019-03-06T03:29:07.351Z,100.00
2019-03-06T03:30:10.430Z,100.00
2019-03-06T03:31:22.285Z,99.85
2019-03-06T03:32:25.087Z,100.00
2019-03-06T03:33:27.866Z,99.69
2019-03-06T03:34:30.749Z,99.69
2019-03-06T03:35:33.707Z,100.00
2019-03-06T03:36:36.785Z,99.85
2019-03-06T03:37:39.804Z,99.86
2019-03-06T03:38:42.617Z,99.83
2019-03-06T03:39:45.479Z,99.69
2019-03-06T03:40:48.331Z,100.00
2019-03-06T03:41:51.143Z,100.00
2019-03-06T03:42:54.509Z,100.00
2019-03-06T03:43:57.420Z,99.81
2019-03-06T03:45:00.530Z,99.63
2019-03-06T03:46:03.414Z,99.95
2019-03-06T03:47:06.217Z,100.00
2019-03-06T03:48:09.017Z,100.00
2019-03-06T03:49:12.167Z,99.99
2019-03-06T03:50:14.959Z,100.00
2019-03-06T03:51:18.023Z,100.00
2019-03-06T03:52:20.950Z,99.98
2019-03-06T03:53:23.741Z,100.00
2019-03-06T03:54:26.599Z,100.00
2019-03-06T03:55:29.677Z,100.00
2019-03-06T03:56:32.567Z,99.99
2019-03-06T03:57:35.785Z,100.00
2019-03-06T03:58:38.586Z,100.00
2019-03-06T03:59:41.382Z,100.00
2019-03-06T04:00:44.207Z,100.00
2019-03-06T04:01:47.744Z,100.00
2019-03-06T04:02:50.601Z,100.00
2019-03-06T04:03:53.417Z,100.00
2019-03-06T04:04:56.224Z,100.00
2019-03-06T04:05:59.260Z,100.00
2019-03-06T04:07:02.150Z,100.00
2019-03-06T04:08:05.261Z,100.00
2019-03-06T04:09:08.495Z,100.00
2019-03-06T04:10:11.716Z,100.00
2019-03-06T04:11:14.537Z,100.00
2019-03-06T04:12:17.857Z,100.00
2019-03-06T04:13:20.683Z,100.00
2019-03-06T04:14:23.993Z,100.00
2019-03-06T04:15:26.868Z,100.00
2019-03-06T04:16:30.320Z,100.00
2019-03-06T04:17:33.852Z,100.00
2019-03-06T04:18:36.645Z,100.00
2019-03-06T04:19:40.224Z,100.00
2019-03-06T04:20:43.506Z,100.00
2019-03-06T04:21:46.695Z,100.00
2019-03-06T04:22:49.567Z,100.00
2019-03-06T04:23:52.382Z,100.00
2019-03-06T04:24:55.135Z,100.00
2019-03-06T04:25:57.978Z,100.00
2019-03-06T04:27:01.504Z,100.00
2019-03-06T04:28:04.364Z,100.00
2019-03-06T04:29:07.219Z,100.00
2019-03-06T04:30:10.027Z,100.00
2019-03-06T04:31:12.897Z,100.00
2019-03-06T04:32:15.709Z,100.00
2019-03-06T04:33:18.862Z,100.00
2019-03-06T04:34:21.883Z,100.00
2019-03-06T04:35:24.766Z,100.00
2019-03-06T04:36:27.617Z,100.00
2019-03-06T04:37:30.409Z,100.00
2019-03-06T04:38:33.295Z,100.00
2019-03-06T04:39:38.541Z,100.00
2019-03-06T04:40:41.346Z,100.00
2019-03-06T04:41:44.262Z,100.00
2019-03-06T04:42:47.484Z,100.00
2019-03-06T04:43:50.377Z,100.00
2019-03-06T04:44:55.365Z,100.00
2019-03-06T04:46:02.846Z,100.00
2019-03-06T04:47:05.661Z,100.00
2019-03-06T04:48:08.538Z,100.00
2019-03-06T04:49:11.344Z,100.00
2019-03-06T04:50:14.209Z,100.00
2019-03-06T04:51:17.327Z,100.00
2019-03-06T04:52:20.435Z,100.00
2019-03-06T04:53:23.263Z,100.00
2019-03-06T04:54:26.482Z,100.00
2019-03-06T04:55:29.339Z,100.00
2019-03-06T04:56:32.464Z,100.00
2019-03-06T04:57:40.883Z,100.00
2019-03-06T04:58:43.975Z,100.00
2019-03-06T04:59:46.826Z,100.00
2019-03-06T05:00:49.735Z,100.00
2019-03-06T05:01:59.853Z,100.00
2019-03-06T05:03:02.635Z,100.00
2019-03-06T05:04:05.423Z,100.00
2019-03-06T05:05:08.550Z,100.00
2019-03-06T05:06:11.810Z,100.00
2019-03-06T05:07:14.665Z,100.00
2019-03-06T05:08:17.637Z,100.00
2019-03-06T05:09:20.684Z,100.00
2019-03-06T05:10:24.478Z,100.00
2019-03-06T05:11:27.761Z,100.00
2019-03-06T05:12:30.626Z,100.00
2019-03-06T05:13:33.563Z,100.00
2019-03-06T05:14:36.432Z,100.00
2019-03-06T05:15:40.744Z,100.00
2019-03-06T05:17:01.225Z,100.00
2019-03-06T05:18:17.827Z,100.00
2019-03-06T05:19:20.634Z,100.00
2019-03-06T05:20:23.431Z,100.00
2019-03-06T05:21:26.266Z,100.00
2019-03-06T05:22:29.165Z,100.00
2019-03-06T05:23:32.261Z,100.00
2019-03-06T05:24:35.544Z,100.00
2019-03-06T05:25:38.761Z,100.00
2019-03-06T05:26:41.592Z,100.00
2019-03-06T05:27:47.309Z,100.00
2019-03-06T05:28:50.188Z,100.00
2019-03-06T05:29:53.361Z,100.00
2019-03-06T05:30:56.615Z,100.00
2019-03-06T05:32:00.096Z,100.00
2019-03-06T05:33:02.953Z,100.00
2019-03-06T05:34:05.778Z,100.00
2019-03-06T05:35:08.609Z,100.00
2019-03-06T05:36:14.458Z,100.00
2019-03-06T05:37:17.303Z,100.00
2019-03-06T05:38:20.193Z,100.00
2019-03-06T05:39:23.076Z,100.00
2019-03-06T05:40:25.907Z,100.00
2019-03-06T05:41:28.692Z,100.00
2019-03-06T05:42:31.786Z,100.00
2019-03-06T05:43:35.027Z,100.00
2019-03-06T05:44:38.342Z,100.00
2019-03-06T05:45:41.142Z,100.00
2019-03-06T05:46:43.972Z,100.00
2019-03-06T05:47:47.607Z,100.00
2019-03-06T05:48:50.999Z,100.00
2019-03-06T05:49:53.987Z,100.00
2019-03-06T05:50:56.795Z,100.00
2019-03-06T05:51:59.763Z,100.00
2019-03-06T05:53:02.668Z,100.00
2019-03-06T05:54:05.469Z,100.00
2019-03-06T05:55:09.147Z,100.00
2019-03-06T05:56:14.495Z,100.00
2019-03-06T05:57:17.321Z,100.00
2019-03-06T05:58:20.191Z,100.00
2019-03-06T05:59:25.743Z,100.00
2019-03-06T06:00:28.995Z,100.00
2019-03-06T06:01:38.241Z,100.00
2019-03-06T06:02:41.034Z,100.00
2019-03-06T06:03:43.857Z,100.00
2019-03-06T06:04:46.724Z,100.00
2019-03-06T06:05:49.621Z,100.00
2019-03-06T06:06:53.261Z,100.00
2019-03-06T06:07:56.476Z,99.99
2019-03-06T06:08:59.284Z,100.00
2019-03-06T06:10:02.123Z,100.00
2019-03-06T06:11:04.995Z,100.00
2019-03-06T06:12:07.831Z,100.00
2019-03-06T06:13:10.627Z,100.00
2019-03-06T06:14:13.708Z,100.00
2019-03-06T06:15:16.550Z,100.00
2019-03-06T06:16:19.451Z,100.00
2019-03-06T06:17:22.265Z,99.91
2019-03-06T06:18:25.123Z,100.00
2019-03-06T06:19:27.952Z,100.00
2019-03-06T06:20:31.068Z,100.00
2019-03-06T06:21:51.625Z,100.00
2019-03-06T06:23:15.962Z,100.00
2019-03-06T06:24:21.795Z,100.00
2019-03-06T06:25:24.612Z,100.00
2019-03-06T06:26:27.885Z,100.00
2019-03-06T06:27:31.053Z,100.00
2019-03-06T06:28:34.034Z,100.00
2019-03-06T06:29:36.832Z,100.00
2019-03-06T06:43:52.525Z,99.96
2019-03-06T06:44:55.359Z,99.35
2019-03-06T06:45:58.193Z,99.68
2019-03-06T06:47:01.039Z,99.43
2019-03-06T06:48:03.834Z,99.40
2019-03-06T06:49:07.029Z,99.57
2019-03-06T06:50:09.832Z,99.28
2019-03-06T06:51:12.790Z,99.53
2019-03-06T06:52:15.589Z,98.95
2019-03-06T06:53:21.490Z,98.93
2019-03-06T06:54:24.410Z,98.85
2019-03-06T06:55:27.650Z,98.63
2019-03-06T06:56:30.769Z,99.47
2019-03-06T06:57:36.033Z,98.98
2019-03-06T06:58:38.866Z,98.98
2019-03-06T06:59:41.774Z,98.91
2019-03-06T07:01:09.735Z,98.81
2019-03-06T07:02:20.342Z,98.81
2019-03-06T07:03:47.921Z,98.96
2019-03-06T07:05:07.775Z,98.77
2019-03-06T07:06:49.044Z,98.30
2019-03-06T07:08:13.349Z,98.15
2019-03-06T07:09:33.086Z,98.12
2019-03-06T07:11:09.475Z,98.12
2019-03-06T07:12:34.019Z,98.23
2019-03-06T07:14:01.514Z,98.23
2019-03-06T07:15:17.349Z,98.16
2019-03-06T07:16:38.927Z,97.84
2019-03-06T07:17:48.018Z,97.24
2019-03-06T07:19:11.410Z,97.24
2019-03-06T07:20:39.377Z,97.17
2019-03-06T07:21:59.453Z,97.08
2019-03-06T07:23:14.030Z,96.67
2019-03-06T07:24:48.699Z,96.67
2019-03-06T07:26:05.411Z,95.63
2019-03-06T07:27:31.441Z,95.00
2019-03-06T07:29:01.261Z,93.78
2019-03-06T07:30:25.691Z,93.55
2019-03-06T07:31:50.150Z,93.55
2019-03-06T07:33:06.928Z,93.04
2019-03-06T07:34:27.052Z,92.18
2019-03-06T07:35:52.875Z,92.18
2019-03-06T07:37:05.769Z,93.52
2019-03-06T07:38:10.541Z,93.81
2019-03-06T07:39:39.932Z,94.18
2019-03-06T07:41:01.858Z,94.18
2019-03-06T07:42:21.795Z,94.91
2019-03-06T07:43:35.984Z,94.65
2019-03-06T07:44:57.507Z,94.68
2019-03-06T07:46:28.560Z,94.68
2019-03-06T07:47:44.253Z,94.90
2019-03-06T07:49:04.428Z,94.90
2019-03-06T07:50:35.292Z,95.44
2019-03-06T07:52:02.572Z,95.46
2019-03-06T07:53:15.580Z,95.46
2019-03-06T07:54:34.374Z,95.39
2019-03-06T07:55:54.083Z,95.33
2019-03-06T07:57:03.054Z,95.04
2019-03-06T07:58:06.347Z,95.18
2019-03-06T07:59:09.241Z,95.18
2019-03-06T08:00:12.202Z,95.09
2019-03-06T08:01:17.300Z,94.83
2019-03-06T08:02:21.239Z,94.60
2019-03-06T08:03:24.751Z,94.16
2019-03-06T08:04:27.927Z,94.08
2019-03-06T08:05:30.720Z,94.08
2019-03-06T08:06:33.611Z,94.08
2019-03-06T08:07:36.437Z,93.88
2019-03-06T08:08:39.692Z,94.13
2019-03-06T08:09:42.645Z,94.30
2019-03-06T08:10:49.569Z,94.01
2019-03-06T08:12:16.918Z,94.01
2019-03-06T08:13:38.481Z,93.21
2019-03-06T08:14:46.641Z,92.74
2019-03-06T08:15:57.653Z,92.41
2019-03-06T08:17:22.685Z,91.44
2019-03-06T08:18:53.023Z,91.44
2019-03-06T08:20:13.863Z,91.56
2019-03-06T08:21:41.215Z,90.95
2019-03-06T08:23:09.491Z,90.71
2019-03-06T08:24:47.317Z,90.61
2019-03-06T08:25:51.310Z,90.61
2019-03-06T08:26:54.120Z,90.50
2019-03-06T08:27:56.906Z,91.01
2019-03-06T08:29:03.262Z,91.71
2019-03-06T08:30:06.084Z,91.41
2019-03-06T08:31:39.693Z,91.54
2019-03-06T08:32:42.504Z,91.57
2019-03-06T08:33:45.320Z,91.53
2019-03-06T08:34:49.836Z,91.53
2019-03-06T08:35:53.038Z,91.14
2019-03-06T08:36:55.852Z,91.29
2019-03-06T08:38:01.608Z,91.02
2019-03-06T08:39:04.959Z,91.02
2019-03-06T08:40:07.825Z,90.32
2019-03-06T08:41:10.624Z,89.92
2019-03-06T08:42:16.767Z,89.93
2019-03-06T08:43:19.974Z,89.97
2019-03-06T08:44:25.828Z,90.17
2019-03-06T08:45:32.833Z,89.37
2019-03-06T08:46:59.914Z,89.11
2019-03-06T08:48:15.616Z,88.77
2019-03-06T08:49:55.329Z,88.77
2019-03-06T08:51:03.863Z,87.96
2019-03-06T08:52:30.939Z,88.25
2019-03-06T08:53:50.244Z,88.47
2019-03-06T08:55:13.298Z,87.53
2019-03-06T08:56:37.734Z,88.00
2019-03-06T08:58:02.602Z,87.03
2019-03-06T08:59:23.029Z,86.82
2019-03-06T09:00:42.970Z,86.83
2019-03-06T09:02:15.741Z,86.37
2019-03-06T09:03:38.570Z,86.22
2019-03-06T09:05:06.969Z,85.21
2019-03-06T09:06:24.720Z,85.66
2019-03-06T09:08:01.442Z,85.55
2019-03-06T09:09:38.644Z,86.10
2019-03-06T09:11:03.442Z,86.00
2019-03-06T09:12:16.599Z,84.73
2019-03-06T09:13:36.571Z,85.32
2019-03-06T09:14:56.463Z,85.16
2019-03-06T09:16:16.438Z,84.46
2019-03-06T09:17:46.870Z,84.75
2019-03-06T09:19:05.894Z,84.19
2019-03-06T09:20:40.680Z,84.07
2019-03-06T09:21:46.852Z,84.03
2019-03-06T09:23:05.943Z,84.03
2019-03-06T09:24:42.496Z,84.11
2019-03-06T09:25:55.702Z,84.39
2019-03-06T09:27:07.136Z,83.05
2019-03-06T09:28:28.802Z,83.55
2019-03-06T09:29:50.321Z,82.42
2019-03-06T09:31:11.876Z,82.44
2019-03-06T09:32:27.792Z,81.94
2019-03-06T09:33:58.423Z,81.01
2019-03-06T09:35:22.843Z,80.96
2019-03-06T09:36:44.438Z,80.96
2019-03-06T09:38:20.997Z,78.53
2019-03-06T09:39:34.279Z,78.53
2019-03-06T09:41:05.110Z,76.94
2019-03-06T09:42:38.613Z,76.70
2019-03-06T09:44:15.559Z,76.90
2019-03-06T09:45:45.899Z,76.38
2019-03-06T09:47:03.387Z,76.23
2019-03-06T09:48:57.062Z,77.02
2019-03-06T09:50:06.762Z,74.50
2019-03-06T09:51:32.636Z,74.39
2019-03-06T09:52:58.498Z,75.29
2019-03-06T09:54:18.499Z,74.44
2019-03-06T09:55:41.773Z,74.44
2019-03-06T09:57:06.199Z,72.97
2019-03-06T09:58:21.510Z,72.97
2019-03-06T09:59:29.633Z,72.74
2019-03-06T10:01:03.228Z,71.94
2019-03-06T10:02:28.449Z,71.55
2019-03-06T10:03:46.180Z,71.55
2019-03-06T10:05:03.640Z,70.76
2019-03-06T10:06:37.291Z,70.75
2019-03-06T10:07:58.270Z,70.75
2019-03-06T10:09:20.783Z,69.73
2019-03-06T10:10:47.544Z,69.73
2019-03-06T10:12:16.437Z,69.32
2019-03-06T10:13:41.594Z,69.13
2019-03-06T10:15:12.146Z,67.70
2019-03-06T10:16:20.488Z,68.50
2019-03-06T10:17:51.082Z,67.67
2019-03-06T10:19:12.781Z,67.92
2019-03-06T10:20:26.772Z,67.62
2019-03-06T10:21:36.376Z,66.21
2019-03-06T10:22:39.256Z,66.61
2019-03-06T10:23:42.120Z,66.18
2019-03-06T10:24:45.921Z,67.11
2019-03-06T10:25:48.559Z,67.39
2019-03-06T10:26:51.740Z,67.39
2019-03-06T10:27:54.593Z,67.45
2019-03-06T10:29:00.029Z,66.89
2019-03-06T10:30:03.039Z,65.94
2019-03-06T10:31:05.861Z,65.72
2019-03-06T10:32:08.677Z,63.67
2019-03-06T10:33:14.337Z,63.76
2019-03-06T10:34:17.158Z,64.16
2019-03-06T10:35:22.625Z,64.16
2019-03-06T10:36:25.606Z,63.95
2019-03-06T10:37:28.517Z,62.58
2019-03-06T10:38:43.708Z,62.52
2019-03-06T10:39:49.650Z,62.52
2019-03-06T10:40:52.465Z,64.24
2019-03-06T10:41:55.424Z,64.24
2019-03-06T10:42:59.987Z,65.97
2019-03-06T10:44:04.585Z,65.66
2019-03-06T10:45:08.156Z,66.08
2019-03-06T10:46:11.132Z,66.50
2019-03-06T10:47:14.050Z,66.86
2019-03-06T10:48:18.853Z,66.96
2019-03-06T10:49:22.455Z,67.00
2019-03-06T10:50:31.739Z,67.20
2019-03-06T10:51:37.508Z,67.20
2019-03-06T10:52:40.326Z,66.96
2019-03-06T10:53:43.147Z,66.29
2019-03-06T10:54:47.999Z,66.98
2019-03-06T10:55:50.762Z,65.43
2019-03-06T10:56:53.961Z,65.46
2019-03-06T10:57:58.842Z,65.55
2019-03-06T10:59:02.227Z,65.27
2019-03-06T11:00:07.436Z,65.38
2019-03-06T11:01:10.242Z,65.05
2019-03-06T11:02:13.315Z,64.95
2019-03-06T11:03:18.414Z,64.95
2019-03-06T11:04:49.319Z,65.10
2019-03-06T11:05:52.099Z,65.33
2019-03-06T11:06:56.150Z,65.59
2019-03-06T11:08:04.810Z,65.20
2019-03-06T11:09:07.230Z,64.53
2019-03-06T11:10:23.395Z,64.63
2019-03-06T11:11:20.134Z,64.63
2019-03-06T11:12:22.979Z,64.69
2019-03-06T11:13:26.112Z,64.32
2019-03-06T11:14:29.296Z,64.32
2019-03-06T11:15:34.398Z,63.89
2019-03-06T11:16:40.196Z,63.98
2019-03-06T11:17:43.706Z,63.98
2019-03-06T11:18:51.384Z,63.24
2019-03-06T11:19:54.406Z,63.38
2019-03-06T11:21:00.303Z,62.80
2019-03-06T11:22:07.404Z,62.80
2019-03-06T11:23:20.658Z,62.64
2019-03-06T11:24:24.841Z,62.97
2019-03-06T11:25:27.660Z,61.47
2019-03-06T11:26:30.570Z,60.68
2019-03-06T11:27:33.679Z,61.14
2019-03-06T11:28:36.583Z,60.89
2019-03-06T11:29:40.193Z,61.98
2019-03-06T11:42:39.754Z,61.16
2019-03-06T11:43:42.682Z,60.86
2019-03-06T11:44:55.775Z,61.42
2019-03-06T11:45:58.584Z,61.42
2019-03-06T11:47:01.600Z,60.87
2019-03-06T11:48:04.920Z,60.72
2019-03-06T11:49:07.619Z,60.72
2019-03-06T11:50:13.271Z,60.62
2019-03-06T11:51:16.454Z,60.03
2019-03-06T11:52:23.104Z,59.40
2019-03-06T11:53:25.932Z,59.78
2019-03-06T11:54:36.276Z,59.52
2019-03-06T11:55:40.477Z,60.02
2019-03-06T11:56:46.508Z,60.20
2019-03-06T11:57:49.345Z,60.05
2019-03-06T11:58:52.258Z,59.87
2019-03-06T11:59:57.304Z,59.94
2019-03-06T12:01:00.661Z,59.94
2019-03-06T12:02:03.709Z,59.94
2019-03-06T12:03:06.459Z,60.09
2019-03-06T12:04:09.175Z,59.13
2019-03-06T12:05:12.778Z,59.26
2019-03-06T12:06:18.346Z,59.13
2019-03-06T12:07:22.548Z,58.13
2019-03-06T12:08:29.004Z,58.21
2019-03-06T12:09:32.136Z,58.93
2019-03-06T12:10:37.019Z,59.54
2019-03-06T12:11:39.874Z,58.41
2019-03-06T12:12:42.825Z,58.46
2019-03-06T12:13:49.828Z,57.91
2019-03-06T12:14:52.793Z,57.32
2019-03-06T12:15:55.730Z,56.76
2019-03-06T12:16:58.892Z,57.77
2019-03-06T12:18:01.847Z,57.07
2019-03-06T12:19:09.831Z,56.70
2019-03-06T12:20:17.753Z,55.86
2019-03-06T12:21:28.715Z,55.90
2019-03-06T12:22:33.178Z,55.90
2019-03-06T12:23:36.300Z,55.49
2019-03-06T12:24:39.203Z,56.37
2019-03-06T12:25:43.101Z,56.29
2019-03-06T12:26:46.072Z,56.33
2019-03-06T12:27:48.795Z,55.74
2019-03-06T12:28:51.614Z,55.74
2019-03-06T12:29:57.231Z,55.90
2019-03-06T12:31:00.157Z,55.30
2019-03-06T12:32:07.136Z,55.77
2019-03-06T12:33:10.665Z,55.77
2019-03-06T12:34:13.557Z,54.69
2019-03-06T12:35:16.700Z,54.14
2019-03-06T12:36:19.436Z,54.23
2019-03-06T12:37:22.169Z,54.38
2019-03-06T12:38:25.934Z,54.92
2019-03-06T12:39:29.726Z,54.92
2019-03-06T12:40:32.925Z,55.07
2019-03-06T12:41:35.723Z,54.93
2019-03-06T12:42:38.624Z,54.93
2019-03-06T12:43:41.277Z,55.55
2019-03-06T12:44:44.005Z,55.88
2019-03-06T12:45:48.218Z,55.88
2019-03-06T12:46:51.073Z,55.97
2019-03-06T12:47:56.923Z,55.71
2019-03-06T12:48:59.802Z,55.21
2019-03-06T12:50:05.718Z,55.69
2019-03-06T12:51:07.384Z,54.92
2019-03-06T12:52:10.732Z,54.75
2019-03-06T12:53:16.512Z,53.49
2019-03-06T12:54:19.266Z,53.49
2019-03-06T12:55:22.165Z,52.65
2019-03-06T12:56:24.892Z,52.03
2019-03-06T12:57:27.844Z,52.38
2019-03-06T12:59:38.912Z,52.97
2019-03-06T13:00:41.653Z,52.47
2019-03-06T13:01:44.240Z,51.98
2019-03-06T13:02:52.389Z,51.98
2019-03-06T13:03:55.516Z,52.31
2019-03-06T13:04:58.208Z,52.41
2019-03-06T13:06:01.037Z,52.74
2019-03-06T13:07:03.849Z,52.74
2019-03-06T13:08:06.768Z,53.31
2019-03-06T13:09:10.155Z,53.13
2019-03-06T13:10:17.176Z,53.13
2019-03-06T13:11:19.925Z,53.86
2019-03-06T13:12:22.711Z,54.45
2019-03-06T13:13:35.264Z,54.06
2019-03-06T13:14:30.670Z,54.66
2019-03-06T13:15:33.402Z,55.12
2019-03-06T13:16:36.282Z,55.07
2019-03-06T13:17:41.726Z,54.75
2019-03-06T13:18:44.566Z,54.75
2019-03-06T13:19:47.529Z,55.00
2019-03-06T13:20:53.250Z,54.52
2019-03-06T13:21:58.876Z,54.86
2019-03-06T13:23:04.064Z,54.90
2019-03-06T13:24:06.316Z,55.04
2019-03-06T13:25:09.190Z,55.35
2019-03-06T13:26:12.089Z,55.95
2019-03-06T13:27:15.233Z,55.25
2019-03-06T13:28:18.064Z,56.22
2019-03-06T13:29:35.545Z,56.22
2019-03-06T13:30:38.367Z,56.05
2019-03-06T13:31:41.136Z,56.24
2019-03-06T13:33:08.581Z,55.71
2019-03-06T13:34:31.063Z,55.70
2019-03-06T13:35:34.294Z,55.70
2019-03-06T13:36:42.515Z,55.84
2019-03-06T13:37:52.060Z,55.84
2019-03-06T13:39:06.071Z,56.05
2019-03-06T13:40:00.964Z,55.90
2019-03-06T13:41:04.037Z,55.90
2019-03-06T13:42:10.111Z,56.06
2019-03-06T13:43:15.118Z,56.09
2019-03-06T13:44:19.431Z,56.09
2019-03-06T13:45:22.097Z,56.48
2019-03-06T13:46:25.150Z,56.48
2019-03-06T13:47:30.537Z,56.33
2019-03-06T13:48:35.893Z,55.91
2019-03-06T13:49:40.979Z,56.10
2019-03-06T13:50:48.567Z,55.53
2019-03-06T13:51:57.791Z,55.98
2019-03-06T13:53:00.492Z,56.40
2019-03-06T13:54:04.735Z,56.13
2019-03-06T13:55:08.135Z,56.13
2019-03-06T13:56:10.917Z,56.33
2019-03-06T13:57:17.918Z,56.33
2019-03-06T13:58:28.294Z,56.24
2019-03-06T13:59:30.992Z,56.24
2019-03-06T14:00:34.104Z,55.97
2019-03-06T14:01:39.972Z,55.95
2019-03-06T14:02:42.847Z,55.78
2019-03-06T14:03:46.644Z,56.05
2019-03-06T14:04:51.175Z,56.18
2019-03-06T14:05:56.928Z,55.62
2019-03-06T14:06:59.757Z,55.85
2019-03-06T14:08:05.680Z,55.85
2019-03-06T14:09:11.140Z,56.21
2019-03-06T14:10:16.582Z,56.21
2019-03-06T14:11:23.097Z,56.19
2019-03-06T14:12:30.393Z,54.75
2019-03-06T14:13:34.847Z,54.58
2019-03-06T14:14:39.059Z,55.17
2019-03-06T14:15:41.744Z,55.08
2019-03-06T14:16:44.552Z,54.70
2019-03-06T14:17:47.253Z,54.52
2019-03-06T14:18:50.025Z,54.71
2019-03-06T14:19:52.772Z,54.70
2019-03-06T14:20:55.849Z,54.70
2019-03-06T14:21:58.693Z,54.04
2019-03-06T14:23:03.308Z,54.22
2019-03-06T14:24:06.209Z,54.03
2019-03-06T14:25:09.164Z,54.15
2019-03-06T14:26:12.060Z,54.18
2019-03-06T14:27:15.170Z,54.14
2019-03-06T14:28:17.861Z,54.47
2019-03-06T14:29:20.559Z,53.66
2019-03-06T14:30:26.173Z,53.67
2019-03-06T14:31:32.172Z,53.79
2019-03-06T14:32:35.309Z,53.79
2019-03-06T14:33:38.712Z,54.38
2019-03-06T14:34:42.698Z,53.23
2019-03-06T14:35:50.258Z,53.43
2019-03-06T14:36:52.972Z,53.43
2019-03-06T14:37:58.194Z,54.33
2019-03-06T14:39:01.621Z,54.34
2019-03-06T14:40:11.295Z,54.44
2019-03-06T14:41:14.360Z,54.02
2019-03-06T14:42:17.793Z,53.85
2019-03-06T14:43:23.166Z,52.97
2019-03-06T14:44:28.981Z,53.08